createdAt,value
2022-10-12T00:00:51.477Z,3.87
2022-10-12T00:03:21.941Z,4.10
2022-10-12T00:06:00.959Z,4.70
2022-10-12T00:08:29.046Z,3.60
2022-10-12T00:10:57.255Z,3.63
2022-10-12T00:13:26.066Z,4.20
2022-10-12T00:15:54.871Z,3.57
2022-10-12T00:18:24.722Z,4.17
2022-10-12T00:21:01.993Z,3.40
2022-10-12T00:23:31.048Z,3.97
2022-10-12T00:26:03.511Z,3.97
2022-10-12T00:28:31.869Z,4.00
2022-10-12T00:31:00.007Z,4.20
2022-10-12T00:33:30.587Z,4.70
2022-10-12T00:35:58.746Z,4.13
2022-10-12T00:38:26.804Z,3.90
2022-10-12T00:40:54.864Z,4.13
2022-10-12T00:43:34.287Z,4.10
2022-10-12T00:46:05.730Z,3.93
2022-10-12T00:48:35.876Z,6.00
2022-10-12T00:51:04.922Z,4.27
2022-10-12T00:53:37.901Z,4.20
2022-10-12T00:56:12.272Z,4.03
2022-10-12T00:58:40.605Z,3.87
2022-10-12T01:01:10.575Z,4.13
2022-10-12T01:03:40.751Z,3.70
2022-10-12T01:06:10.000Z,4.03
2022-10-12T01:08:39.299Z,4.30
2022-10-12T01:11:07.644Z,3.63
2022-10-12T01:13:35.819Z,3.80
2022-10-12T01:16:12.646Z,3.40
2022-10-12T01:18:47.427Z,3.30
2022-10-12T01:21:22.617Z,3.63
2022-10-12T01:24:18.884Z,3.70
2022-10-12T01:27:03.648Z,3.37
2022-10-12T01:30:07.419Z,3.50
2022-10-12T01:32:47.419Z,3.40
2022-10-12T01:35:22.206Z,3.27
2022-10-12T01:37:58.159Z,3.27
2022-10-12T01:40:32.693Z,3.97
2022-10-12T01:43:01.182Z,3.57
2022-10-12T01:45:29.504Z,3.10
2022-10-12T01:47:59.177Z,3.27
2022-10-12T01:50:36.191Z,3.10
2022-10-12T01:53:15.241Z,3.17
2022-10-12T01:55:50.649Z,3.10
2022-10-12T01:58:49.471Z,3.57
2022-10-12T02:01:27.094Z,3.67
2022-10-12T02:04:04.167Z,3.03
2022-10-12T02:06:39.919Z,3.23
2022-10-12T02:09:14.730Z,2.83
2022-10-12T02:11:46.153Z,3.13
2022-10-12T02:14:17.925Z,2.77
2022-10-12T02:16:51.132Z,3.30
2022-10-12T02:19:24.594Z,2.70
2022-10-12T02:21:55.361Z,2.77
2022-10-12T02:24:25.008Z,2.87
2022-10-12T02:26:55.873Z,2.93
2022-10-12T02:29:28.077Z,2.93
2022-10-12T02:32:03.531Z,2.70
2022-10-12T02:34:37.432Z,3.07
2022-10-12T02:37:10.285Z,2.80
2022-10-12T02:39:44.833Z,3.03
2022-10-12T02:42:19.062Z,3.47
2022-10-12T02:44:48.932Z,3.60
2022-10-12T02:47:18.287Z,3.33
2022-10-12T02:49:49.359Z,2.83
2022-10-12T02:52:17.721Z,3.00
2022-10-12T02:54:45.850Z,3.50
2022-10-12T02:57:13.961Z,3.50
2022-10-12T02:59:42.222Z,3.00
2022-10-12T03:02:10.962Z,2.67
2022-10-12T03:04:39.292Z,2.80
2022-10-12T03:07:08.734Z,3.77
2022-10-12T03:09:36.947Z,2.77
2022-10-12T03:12:05.567Z,3.00
2022-10-12T03:14:35.198Z,2.37
2022-10-12T03:17:03.334Z,2.80
2022-10-12T03:19:31.609Z,2.70
2022-10-12T03:21:59.720Z,2.60
2022-10-12T03:24:29.213Z,2.33
2022-10-12T03:26:57.335Z,2.30
2022-10-12T03:29:25.647Z,2.40
2022-10-12T03:31:53.709Z,2.60
2022-10-12T03:34:21.797Z,2.57
2022-10-12T03:36:49.874Z,2.70
2022-10-12T03:39:18.005Z,2.80
2022-10-12T03:41:47.454Z,2.50
2022-10-12T03:44:15.575Z,2.50
2022-10-12T03:46:43.688Z,2.57
2022-10-12T03:49:11.795Z,2.33
2022-10-12T03:51:39.890Z,2.40
2022-10-12T03:54:07.948Z,2.40
2022-10-12T03:56:36.078Z,2.43
2022-10-12T03:59:05.912Z,2.30
2022-10-12T04:01:34.078Z,3.00
2022-10-12T04:04:02.212Z,2.40
2022-10-12T04:06:30.430Z,2.30
2022-10-12T04:08:58.602Z,2.90
2022-10-12T04:11:26.777Z,2.13
2022-10-12T04:13:54.879Z,2.70
2022-10-12T04:16:26.197Z,2.37
2022-10-12T04:18:56.963Z,2.20
2022-10-12T04:21:26.256Z,2.33
2022-10-12T04:23:54.576Z,2.30
2022-10-12T04:26:22.663Z,2.40
2022-10-12T04:28:50.817Z,2.50
2022-10-12T04:31:19.029Z,2.70
2022-10-12T04:33:48.596Z,2.20
2022-10-12T04:36:16.850Z,2.60
2022-10-12T04:38:45.284Z,2.50
2022-10-12T04:41:13.645Z,2.60
2022-10-12T04:43:41.820Z,2.10
2022-10-12T04:46:10.179Z,2.63
2022-10-12T04:48:38.407Z,2.30
2022-10-12T04:51:07.915Z,2.77
2022-10-12T04:53:36.075Z,2.60
2022-10-12T04:56:04.877Z,2.70
2022-10-12T04:58:33.775Z,2.80
2022-10-12T05:01:02.478Z,2.70
2022-10-12T05:03:30.631Z,2.40
2022-10-12T05:05:58.725Z,2.80
2022-10-12T05:08:28.224Z,3.00
2022-10-12T05:10:58.507Z,2.73
2022-10-12T05:13:27.040Z,2.80
2022-10-12T05:15:55.161Z,3.00
2022-10-12T05:18:23.377Z,2.77
2022-10-12T05:20:56.668Z,2.73
2022-10-12T05:23:25.507Z,2.87
2022-10-12T05:25:55.789Z,2.57
2022-10-12T05:28:24.383Z,2.70
2022-10-12T05:30:52.934Z,2.57
2022-10-12T05:33:21.723Z,2.23
2022-10-12T05:35:54.674Z,3.00
2022-10-12T05:38:24.383Z,2.40
2022-10-12T05:40:57.700Z,2.60
2022-10-12T05:43:29.980Z,2.37
2022-10-12T05:45:58.404Z,2.20
2022-10-12T05:48:26.548Z,2.63
2022-10-12T05:50:55.446Z,2.40
2022-10-12T05:53:24.244Z,2.87
2022-10-12T05:55:56.652Z,2.40
2022-10-12T05:58:25.782Z,2.40
2022-10-12T06:00:55.724Z,2.67
2022-10-12T06:03:26.197Z,2.23
2022-10-12T06:05:54.748Z,2.53
2022-10-12T06:08:22.884Z,2.80
2022-10-12T06:10:53.844Z,2.37
2022-10-12T06:13:22.051Z,2.50
2022-10-12T06:15:51.098Z,2.67
2022-10-12T06:18:20.934Z,2.77
2022-10-12T06:20:49.521Z,3.00
2022-10-12T06:23:17.698Z,2.70
2022-10-12T06:25:47.367Z,3.17
2022-10-12T06:28:15.892Z,3.00
2022-10-12T06:30:44.629Z,3.03
2022-10-12T06:33:12.918Z,3.43
2022-10-12T06:35:42.357Z,3.10
2022-10-12T06:38:10.465Z,3.03
2022-10-12T06:40:38.660Z,3.60
2022-10-12T06:43:06.819Z,3.43
2022-10-12T06:45:35.449Z,3.43
2022-10-12T06:48:04.105Z,3.30
2022-10-12T06:50:32.294Z,3.87
2022-10-12T06:53:01.764Z,3.30
2022-10-12T06:55:30.887Z,3.80
2022-10-12T06:57:59.014Z,3.93
2022-10-12T07:00:27.088Z,4.80
2022-10-12T07:02:55.317Z,3.80
2022-10-12T07:05:24.909Z,3.70
2022-10-12T07:07:53.065Z,4.03
2022-10-12T07:10:23.084Z,3.27
2022-10-12T07:12:51.161Z,3.30
2022-10-12T07:15:19.507Z,3.40
2022-10-12T07:17:47.595Z,3.67
2022-10-12T07:20:15.953Z,3.30
2022-10-12T07:22:44.617Z,3.80
2022-10-12T07:25:12.845Z,4.23
2022-10-12T07:27:42.376Z,3.23
2022-10-12T07:30:12.313Z,3.47
2022-10-12T07:32:40.607Z,3.73
2022-10-12T07:35:09.446Z,3.70
2022-10-12T07:37:37.800Z,3.50
2022-10-12T07:40:07.114Z,3.53
2022-10-12T07:42:35.262Z,3.13
2022-10-12T07:45:05.351Z,3.17
2022-10-12T07:47:33.523Z,3.40
2022-10-12T07:50:01.677Z,3.63
2022-10-12T07:52:32.401Z,4.07
2022-10-12T07:55:00.494Z,3.93
2022-10-12T07:57:28.750Z,3.50
2022-10-12T07:59:56.858Z,3.80
2022-10-12T08:02:26.587Z,3.43
2022-10-12T08:04:54.685Z,3.03
2022-10-12T08:07:22.787Z,3.40
2022-10-12T08:09:51.062Z,3.13
2022-10-12T08:12:19.458Z,3.57
2022-10-12T08:14:47.615Z,3.10
2022-10-12T08:17:16.028Z,3.10
2022-10-12T08:19:45.549Z,3.03
2022-10-12T08:22:13.641Z,4.27
2022-10-12T08:24:42.295Z,3.07
2022-10-12T08:27:10.923Z,3.30
2022-10-12T08:29:41.001Z,3.07
2022-10-12T08:32:09.321Z,3.43
2022-10-12T08:34:37.856Z,3.23
2022-10-12T08:37:07.891Z,3.20
2022-10-12T08:39:36.365Z,3.50
2022-10-12T08:42:17.326Z,3.80
2022-10-12T08:45:05.050Z,3.53
2022-10-12T08:47:38.997Z,3.30
2022-10-12T08:50:10.982Z,3.00
2022-10-12T08:52:46.568Z,3.20
2022-10-12T08:55:34.142Z,3.10
2022-10-12T08:58:02.874Z,3.07
2022-10-12T09:00:35.198Z,2.90
2022-10-12T09:03:14.919Z,3.07
2022-10-12T09:05:48.691Z,2.80
2022-10-12T09:08:33.242Z,2.83
2022-10-12T09:11:14.764Z,2.87
2022-10-12T09:13:48.654Z,3.00
2022-10-12T09:16:24.026Z,3.00
2022-10-12T09:18:57.904Z,3.20
2022-10-12T09:21:29.201Z,2.77
2022-10-12T09:23:59.335Z,3.10
2022-10-12T09:26:34.799Z,3.03
2022-10-12T09:29:05.772Z,3.40
2022-10-12T09:31:44.950Z,3.03
2022-10-12T09:34:18.205Z,3.10
2022-10-12T09:36:47.459Z,3.00
2022-10-12T09:39:23.508Z,3.37
2022-10-12T09:41:55.224Z,3.20
2022-10-12T09:44:29.437Z,3.37
2022-10-12T09:47:00.760Z,3.40
2022-10-12T09:49:41.943Z,3.07
2022-10-12T09:52:10.855Z,3.60
2022-10-12T09:54:47.703Z,3.30
2022-10-12T09:57:20.324Z,3.13
2022-10-12T09:59:49.125Z,2.83
2022-10-12T10:02:19.376Z,3.33
2022-10-12T10:04:49.238Z,3.17
2022-10-12T10:07:27.478Z,3.10
2022-10-12T10:10:15.995Z,3.00
2022-10-12T10:12:55.837Z,3.40
2022-10-12T10:15:28.118Z,3.60
2022-10-12T10:17:59.764Z,3.30
2022-10-12T10:20:32.006Z,3.20
2022-10-12T10:23:01.379Z,3.13
2022-10-12T10:25:31.366Z,3.40
2022-10-12T10:28:24.168Z,3.47
2022-10-12T10:31:02.886Z,3.33
2022-10-12T10:33:31.651Z,3.33
2022-10-12T10:36:04.291Z,3.37
2022-10-12T10:38:35.224Z,3.60
2022-10-12T10:41:07.924Z,3.10
2022-10-12T10:43:36.941Z,3.03
2022-10-12T10:46:06.673Z,3.03
2022-10-12T10:48:51.094Z,3.10
2022-10-12T10:51:19.301Z,3.10
2022-10-12T10:53:49.283Z,2.87
2022-10-12T10:56:23.947Z,2.93
2022-10-12T10:58:56.004Z,3.00
2022-10-12T11:01:29.044Z,3.10
2022-10-12T11:04:02.559Z,2.80
2022-10-12T11:06:39.194Z,2.90
2022-10-12T11:09:14.591Z,2.80
2022-10-12T11:11:45.826Z,2.83
2022-10-12T11:14:17.736Z,2.97
2022-10-12T11:16:50.067Z,3.00
2022-10-12T11:19:31.582Z,3.00
2022-10-12T11:22:04.621Z,3.00
2022-10-12T11:24:39.897Z,3.27
2022-10-12T11:27:16.339Z,3.20
2022-10-12T11:29:46.628Z,2.60
2022-10-12T11:32:27.471Z,2.83
2022-10-12T11:34:59.499Z,2.90
2022-10-12T11:37:38.623Z,3.00
2022-10-12T11:40:11.844Z,2.73
2022-10-12T11:42:43.876Z,2.90
2022-10-12T11:45:22.171Z,2.90
2022-10-12T11:47:55.338Z,2.90
2022-10-12T11:50:31.690Z,2.87
2022-10-12T11:53:02.639Z,3.20
2022-10-12T11:55:52.303Z,2.47
2022-10-12T11:58:42.289Z,2.90
2022-10-12T12:01:48.964Z,2.80
2022-10-12T12:04:41.096Z,2.90
2022-10-12T12:07:43.883Z,2.40
2022-10-12T12:10:53.468Z,3.33
2022-10-12T12:13:27.323Z,2.90
2022-10-12T12:16:34.719Z,2.80
2022-10-12T12:19:29.580Z,2.60
2022-10-12T12:22:24.395Z,2.73
2022-10-12T12:24:55.687Z,2.93
2022-10-12T12:27:29.862Z,2.57
2022-10-12T12:30:01.273Z,2.90
2022-10-12T12:32:44.371Z,2.73
2022-10-12T12:35:28.377Z,3.47
2022-10-12T12:38:27.772Z,3.00
2022-10-12T12:41:13.246Z,2.90
2022-10-12T12:44:04.084Z,2.77
2022-10-12T12:47:39.798Z,3.10
2022-10-12T12:50:02.190Z,3.00
2022-10-12T12:52:33.730Z,3.17
2022-10-12T12:55:41.983Z,3.73
2022-10-12T12:58:38.868Z,2.90
2022-10-12T13:01:29.487Z,2.90
2022-10-12T13:04:12.802Z,3.37
2022-10-12T13:07:12.291Z,2.80
2022-10-12T13:09:53.544Z,2.60
2022-10-12T13:12:46.092Z,2.93
2022-10-12T13:15:41.688Z,2.60
2022-10-12T13:18:47.182Z,3.00
2022-10-12T13:21:20.205Z,2.80
2022-10-12T13:23:52.349Z,3.23
2022-10-12T13:26:25.176Z,3.00
2022-10-12T13:28:55.349Z,3.00
2022-10-12T13:31:29.542Z,2.90
2022-10-12T13:34:04.958Z,2.70
2022-10-12T13:36:36.796Z,3.20
2022-10-12T13:39:16.938Z,2.83
2022-10-12T13:41:46.810Z,2.93
2022-10-12T13:44:23.392Z,2.90
2022-10-12T13:46:54.996Z,3.27
2022-10-12T13:49:25.027Z,2.90
2022-10-12T13:51:55.105Z,2.40
2022-10-12T13:54:28.246Z,2.80
2022-10-12T13:57:00.314Z,3.03
2022-10-12T13:59:32.101Z,3.03
2022-10-12T14:02:02.530Z,3.00
2022-10-12T14:04:32.946Z,3.07
2022-10-12T14:07:04.152Z,2.53
2022-10-12T14:09:42.799Z,2.57
2022-10-12T14:12:12.009Z,2.80
2022-10-12T14:14:41.996Z,2.40
2022-10-12T14:17:16.130Z,2.70
2022-10-12T14:19:46.866Z,3.07
2022-10-12T14:22:21.714Z,2.60
2022-10-12T14:24:52.246Z,3.10
2022-10-12T14:27:26.927Z,2.70
2022-10-12T14:29:58.562Z,2.40
2022-10-12T14:32:41.046Z,2.77
2022-10-12T14:35:28.197Z,2.83
2022-10-12T14:37:57.279Z,2.70
2022-10-12T14:40:40.147Z,2.30
2022-10-12T14:43:24.311Z,2.40
2022-10-12T14:45:53.325Z,2.80
2022-10-12T14:48:25.952Z,2.80
2022-10-12T14:50:54.222Z,2.57
2022-10-12T14:53:22.773Z,3.90
2022-10-12T14:55:54.574Z,2.60
2022-10-12T14:58:22.978Z,2.80
2022-10-12T15:00:51.173Z,2.43
2022-10-12T15:03:20.390Z,2.80
2022-10-12T15:05:48.675Z,3.10
2022-10-12T15:08:16.768Z,3.13
2022-10-12T15:10:45.031Z,3.07
2022-10-12T15:13:15.393Z,2.93
2022-10-12T15:15:45.428Z,3.10
2022-10-12T15:18:13.494Z,3.07
2022-10-12T15:20:46.752Z,3.03
2022-10-12T15:23:17.228Z,3.00
2022-10-12T15:25:51.394Z,2.60
2022-10-12T15:28:21.752Z,2.97
2022-10-12T15:33:41.930Z,2.70
2022-10-12T15:36:10.897Z,2.93
2022-10-12T15:38:39.130Z,2.87
2022-10-12T15:41:07.450Z,3.03
2022-10-12T15:43:39.697Z,2.80
2022-10-12T15:46:12.089Z,3.13
2022-10-12T15:48:40.371Z,3.83
2022-10-12T15:51:14.821Z,2.73
2022-10-12T15:53:44.978Z,3.10
2022-10-12T15:56:15.570Z,3.13
2022-10-12T15:58:45.769Z,2.80
2022-10-12T16:01:15.220Z,3.30
2022-10-12T16:03:44.503Z,2.90
2022-10-12T16:06:12.621Z,3.00
2022-10-12T16:08:41.000Z,3.00
2022-10-12T16:11:12.162Z,2.80
2022-10-12T16:13:46.807Z,2.80
2022-10-12T16:16:19.515Z,3.20
2022-10-12T16:18:47.627Z,2.50
2022-10-12T16:21:15.986Z,2.77
2022-10-12T16:23:44.062Z,2.90
2022-10-12T16:26:14.956Z,2.70
2022-10-12T16:28:43.522Z,3.00
2022-10-12T16:31:15.248Z,2.60
2022-10-12T16:33:45.306Z,2.83
2022-10-12T16:36:15.499Z,2.30
2022-10-12T16:38:44.624Z,2.50
2022-10-12T16:41:14.285Z,2.40
2022-10-12T16:43:42.787Z,2.60
2022-10-12T16:46:11.694Z,3.13
2022-10-12T16:48:39.948Z,2.87
2022-10-12T16:51:10.758Z,2.70
2022-10-12T16:53:39.190Z,2.70
2022-10-12T16:56:07.946Z,2.97
2022-10-12T16:58:36.050Z,2.87
2022-10-12T17:01:11.086Z,2.90
2022-10-12T17:03:39.469Z,3.90
2022-10-12T17:06:09.777Z,3.77
2022-10-12T17:08:39.399Z,3.43
2022-10-12T17:11:09.326Z,3.00
2022-10-12T17:13:38.257Z,3.00
2022-10-12T17:16:27.583Z,3.33
2022-10-12T17:18:59.370Z,2.93
2022-10-12T17:21:29.916Z,3.20
2022-10-12T17:23:58.504Z,3.37
2022-10-12T17:26:26.768Z,3.40
2022-10-12T17:28:54.865Z,3.23
2022-10-12T17:31:23.073Z,3.37
2022-10-12T17:33:51.363Z,3.13
2022-10-12T17:36:20.338Z,3.37
2022-10-12T17:38:51.845Z,2.90
2022-10-12T17:41:19.998Z,2.80
2022-10-12T17:43:48.383Z,2.90
2022-10-12T17:46:21.507Z,3.07
2022-10-12T17:48:50.591Z,2.60
2022-10-12T17:51:19.555Z,2.70
2022-10-12T17:53:47.689Z,2.47
2022-10-12T17:56:17.483Z,2.53
2022-10-12T17:58:45.610Z,3.17
2022-10-12T18:01:15.808Z,4.30
2022-10-12T18:03:47.318Z,8.57
2022-10-12T18:06:18.182Z,9.30
2022-10-12T18:08:46.755Z,10.20
2022-10-12T18:11:17.167Z,9.00
2022-10-12T18:13:48.453Z,11.67
2022-10-12T18:16:18.535Z,10.10
2022-10-12T18:18:50.657Z,10.70
2022-10-12T18:21:21.103Z,8.50
2022-10-12T18:23:49.345Z,8.10
2022-10-12T18:26:22.901Z,6.83
2022-10-12T18:28:53.173Z,6.63
2022-10-12T18:31:23.445Z,6.40
2022-10-12T18:33:52.344Z,5.10
2022-10-12T18:36:21.879Z,4.10
2022-10-12T18:38:50.262Z,3.73
2022-10-12T18:41:23.385Z,3.83
2022-10-12T18:43:55.454Z,3.73
2022-10-12T18:46:23.747Z,2.93
2022-10-12T18:48:51.848Z,3.00
2022-10-12T18:51:22.557Z,2.87
2022-10-12T18:53:51.255Z,3.10
2022-10-12T18:56:21.401Z,2.50
2022-10-12T18:58:49.612Z,2.80
2022-10-12T19:01:20.188Z,2.83
2022-10-12T19:03:49.387Z,3.20
2022-10-12T19:06:21.941Z,3.00
2022-10-12T19:08:50.892Z,2.23
2022-10-12T19:11:22.430Z,2.77
2022-10-12T19:13:53.714Z,2.90
2022-10-12T19:16:22.463Z,2.40
2022-10-12T19:18:51.061Z,3.53
2022-10-12T19:21:19.966Z,2.67
2022-10-12T19:23:48.142Z,2.77
2022-10-12T19:26:18.235Z,2.70
2022-10-12T19:28:48.141Z,2.53
2022-10-12T19:31:19.109Z,2.83
2022-10-12T19:33:47.795Z,2.60
2022-10-12T19:36:18.971Z,2.63
2022-10-12T19:38:47.094Z,2.60
2022-10-12T19:41:15.804Z,3.00
2022-10-12T19:43:44.267Z,2.77
2022-10-12T19:46:14.637Z,2.97
2022-10-12T19:48:43.314Z,2.90
2022-10-12T19:51:14.049Z,2.70
2022-10-12T19:53:42.869Z,2.60
2022-10-12T19:56:14.059Z,2.50
2022-10-12T19:58:43.001Z,2.80
2022-10-12T20:01:15.112Z,2.70
2022-10-12T20:03:47.792Z,2.40
2022-10-12T20:06:16.634Z,2.40
2022-10-12T20:08:45.945Z,2.53
2022-10-12T20:11:18.466Z,2.80
2022-10-12T20:13:48.565Z,2.83
2022-10-12T20:16:19.552Z,3.00
2022-10-12T20:18:48.324Z,2.53
2022-10-12T20:21:19.741Z,2.20
2022-10-12T20:23:47.950Z,2.20
2022-10-12T20:26:17.918Z,2.40
2022-10-12T20:28:46.071Z,2.43
2022-10-12T20:31:14.299Z,2.27
2022-10-12T20:33:44.352Z,2.70
2022-10-12T20:36:23.580Z,2.73
2022-10-12T20:38:52.939Z,2.30
2022-10-12T20:41:22.116Z,2.60
2022-10-12T20:43:50.314Z,2.20
2022-10-12T20:46:20.102Z,2.10
2022-10-12T20:48:49.580Z,2.80
2022-10-12T20:51:21.729Z,2.40
2022-10-12T20:53:50.911Z,3.00
2022-10-12T20:56:20.346Z,2.80
2022-10-12T20:58:48.831Z,2.83
2022-10-12T21:01:18.618Z,2.30
2022-10-12T21:03:46.873Z,2.40
2022-10-12T21:06:18.983Z,2.80
2022-10-12T21:08:51.292Z,2.27
2022-10-12T21:11:19.485Z,2.23
2022-10-12T21:13:47.956Z,2.57
2022-10-12T21:16:17.292Z,2.57
2022-10-12T21:18:45.752Z,2.90
2022-10-12T21:21:17.245Z,2.67
2022-10-12T21:23:47.152Z,2.40
2022-10-12T21:26:17.433Z,3.13
2022-10-12T21:28:46.523Z,2.37
2022-10-12T21:31:15.559Z,2.50
2022-10-12T21:33:44.021Z,2.30
2022-10-12T21:36:15.055Z,3.13
2022-10-12T21:38:45.003Z,2.93
2022-10-12T21:41:15.291Z,2.37
2022-10-12T21:43:44.205Z,2.57
2022-10-12T21:46:14.463Z,2.30
2022-10-12T21:48:42.946Z,2.20
2022-10-12T21:51:11.687Z,2.63
2022-10-12T21:53:40.510Z,2.20
2022-10-12T21:56:11.477Z,3.33
2022-10-12T21:58:39.607Z,2.50
2022-10-12T22:01:09.318Z,2.27
2022-10-12T22:03:37.639Z,2.40
2022-10-12T22:06:06.266Z,2.60
2022-10-12T22:08:35.083Z,2.50
2022-10-12T22:11:07.657Z,2.23
2022-10-12T22:13:37.615Z,2.53
2022-10-12T22:16:08.192Z,2.53
2022-10-12T22:18:36.793Z,1.90
2022-10-12T22:21:05.948Z,2.60
2022-10-12T22:23:34.296Z,2.43
2022-10-12T22:26:03.407Z,2.47
2022-10-12T22:28:31.684Z,2.63
2022-10-12T22:31:01.210Z,2.57
2022-10-12T22:33:29.361Z,2.70
2022-10-12T22:35:59.335Z,2.50
2022-10-12T22:38:27.917Z,3.20
2022-10-12T22:40:57.254Z,3.93
2022-10-12T22:43:26.137Z,2.40
2022-10-12T22:45:54.468Z,2.50
2022-10-12T22:48:25.239Z,2.40
2022-10-12T22:50:54.295Z,2.40
2022-10-12T22:53:24.000Z,2.30
2022-10-12T22:55:59.034Z,2.40
2022-10-12T22:58:27.566Z,2.40
2022-10-12T23:01:02.681Z,2.33
2022-10-12T23:03:32.994Z,2.37
2022-10-12T23:06:01.265Z,2.53
2022-10-12T23:08:30.161Z,2.60
2022-10-12T23:11:04.957Z,2.70
2022-10-12T23:13:33.485Z,2.70
2022-10-12T23:16:05.579Z,2.43
2022-10-12T23:18:36.540Z,2.63
2022-10-12T23:21:06.105Z,2.50
2022-10-12T23:23:34.897Z,2.40
2022-10-12T23:26:04.575Z,2.40
2022-10-12T23:28:32.893Z,2.60
2022-10-12T23:31:03.280Z,2.50
2022-10-12T23:33:31.460Z,3.30
2022-10-12T23:36:03.346Z,2.50
2022-10-12T23:38:32.748Z,2.40
2022-10-12T23:41:00.823Z,2.10
2022-10-12T23:43:29.554Z,2.40
2022-10-12T23:45:57.930Z,2.70
2022-10-12T23:48:26.634Z,2.63
2022-10-12T23:50:54.719Z,2.33
2022-10-12T23:53:24.962Z,2.27
2022-10-12T23:55:54.870Z,2.87
2022-10-12T23:58:23.359Z,2.40
